Flight Track Log - Related Links

Times and Time Zones

All times are in EST time to prevent confusion due to time zone crossing. See the N589H flight status page for this flight to view local times or setup timezone preferences in your user account.

Time Position Orientation Groundspeed Altitude Reporting Facility
EST Latitude Longitude Course Direction KTS MPH feet Rate Location/Type
Thu 01:28:06 AM 45.4667 -73.7000 207° Southwest 10 12 100  Level Montreal Center
Thu 01:29:16 AM 45.4500 -73.7167 215° Southwest 150 173 1,000 1,431 Climbing Montreal Center
Thu 01:30:16 AM 45.4000 -73.7667 215° Southwest 180 207 3,200 2,200 Climbing Montreal Center
Thu 01:31:16 AM 45.3667 -73.8167 227° Southwest 180 207 5,400 2,000 Climbing Montreal Center
Thu 01:32:16 AM 45.3167 -73.8500 205° Southwest 200 230 7,200 1,950 Climbing Montreal Center
Thu 01:33:00 AM 45.0604 -74.0283 207° Southwest  Level FlightAware Approximate
Thu 01:33:16 AM 45.2500 -73.9000 208° Southwest 220 253 9,300  Level Montreal Center
Thu 01:34:00 AM 44.9926 -74.0767 207° Southwest  Level FlightAware Approximate
Thu 01:34:16 AM 45.2000 -73.9500 215° Southwest 220 253 11,700  Level Montreal Center
Thu 01:35:16 AM 45.1500 -73.9667 193° South 220 253 14,100 2,250 Climbing Montreal Center
Thu 01:36:16 AM 45.0833 -74.0167 208° Southwest 230 265 16,200 1,850 Climbing Montreal Center
Thu 01:37:16 AM 45.0333 -74.0667 215° Southwest 220 253 17,800 1,600 Climbing Montreal Center
Thu 01:38:16 AM 44.9833 -74.1167 215° Southwest 240 276 19,400 1,750 Climbing Montreal Center
Thu 01:39:16 AM 44.9167 -74.1500 199° South 250 288 21,300 2,100 Climbing Montreal Center
Thu 01:40:16 AM 44.8500 -74.2167 215° Southwest 240 276 23,600 2,000 Climbing Montreal Center
Thu 01:41:07 AM 44.8311 -74.2511 232° Southwest 246 283 25,000 1,730 Climbing Boston Center
Thu 01:42:07 AM 44.7731 -74.2969 209° Southwest 245 282 26,800 1,700 Climbing Boston Center
Thu 01:43:07 AM 44.7136 -74.3458 210° Southwest 245 282 28,400 1,636 Climbing Boston Center
Thu 01:44:08 AM 44.6528 -74.3928 209° Southwest 247 284 30,100 1,686 Climbing Boston Center
Thu 01:45:08 AM 44.5925 -74.4408 210° Southwest 249 287 31,800 950 Climbing Boston Center
Thu 01:46:08 AM 44.5333 -74.4886 210° Southwest 247 284 32,000 100 Climbing Boston Center
Thu 01:47:08 AM 44.4608 -74.5436 208° Southwest 277 319 32,000  Level Boston Center
Thu 01:48:08 AM 44.3858 -74.6042 210° Southwest 305 351 32,000  Level Boston Center
Thu 01:49:08 AM 44.3058 -74.6661 209° Southwest 322 371 32,000  Level Boston Center
Thu 01:50:08 AM 44.2253 -74.7300 210° Southwest 331 381 32,000  Level Boston Center
Thu 01:51:08 AM 44.1425 -74.7939 209° Southwest 338 389 32,000  Level Boston Center
Thu 01:52:08 AM 44.0597 -74.8583 209° Southwest 340 391 32,000  Level Boston Center
Thu 01:53:08 AM 43.9767 -74.9242 210° Southwest 343 395 32,000  Level Boston Center
Thu 01:54:08 AM 43.8953 -74.9878 209° Southwest 339 390 32,000  Level Boston Center
Thu 01:55:09 AM 43.8133 -75.0494 209° Southwest 335 386 32,000  Level Boston Center
Thu 01:56:09 AM 43.7325 -75.1136 210° Southwest 336 387 32,000  Level Boston Center
Thu 01:57:09 AM 43.6508 -75.1761 209° Southwest 336 387 32,000  Level Boston Center
Thu 01:58:09 AM 43.5683 -75.2386 209° Southwest 339 390 32,000  Level Boston Center
Thu 01:59:09 AM 43.4872 -75.2994 209° Southwest 338 389 32,000  Level Boston Center
Thu 02:00:09 AM 43.3942 -75.3708 209° Southwest 331 381 32,000  Level Boston Center
Thu 02:01:09 AM 43.3161 -75.4311 209° Southwest 331 381 32,000  Level Boston Center
Thu 02:02:09 AM 43.2369 -75.4919 209° Southwest 330 380 32,000  Level Boston Center
Thu 02:03:09 AM 43.1564 -75.5531 209° Southwest 335 386 32,000  Level Boston Center
Thu 02:04:09 AM 43.0761 -75.6131 209° Southwest 332 382 32,000  Level Boston Center
Thu 02:05:09 AM 42.9972 -75.6728 209° Southwest 326 375 32,000  Level Boston Center
Thu 02:06:10 AM 42.9169 -75.7317 208° Southwest 329 379 32,000  Level Boston Center
Thu 02:07:10 AM 42.8375 -75.7917 209° Southwest 328 377 32,000  Level Boston Center
Thu 02:08:10 AM 42.7578 -75.8506 208° Southwest 327 376 32,000  Level Boston Center
Thu 02:09:10 AM 42.6783 -75.9100 209° Southwest 327 376 32,000  Level Boston Center
Thu 02:10:10 AM 42.6006 -75.9664 208° Southwest 319 367 32,000  Level Boston Center
Thu 02:11:10 AM 42.5236 -76.0244 209° Southwest 316 364 32,000  Level Boston Center
Thu 02:12:10 AM 42.4458 -76.0803 208° Southwest 316 364 32,000  Level Boston Center
Thu 02:13:10 AM 42.3686 -76.1364 208° Southwest 313 360 32,000  Level Boston Center
Thu 02:14:09 AM 42.2925 -76.1931 209° Southwest 317 365 32,000  Level Cleveland Center
Thu 02:15:09 AM 42.2150 -76.2494 208° Southwest 318 366 32,000  Level Cleveland Center
Thu 02:16:09 AM 42.1389 -76.3058 209° Southwest 316 364 32,000  Level Cleveland Center
Thu 02:17:10 AM 42.0619 -76.3611 208° Southwest 315 362 32,000  Level Cleveland Center
Thu 02:18:10 AM 41.9833 -76.4167 208° Southwest 316 364 32,000  Level Cleveland Center
Thu 02:19:10 AM 41.9050 -76.4747 209° Southwest 318 366 32,000  Level Cleveland Center
Thu 02:20:10 AM 41.8267 -76.5292 207° Southwest 318 366 32,000  Level Cleveland Center
Thu 02:21:10 AM 41.7486 -76.5864 209° Southwest 318 366 32,000  Level Cleveland Center
Thu 02:22:10 AM 41.6706 -76.6422 208° Southwest 318 366 32,000  Level Cleveland Center
Thu 02:23:10 AM 41.5922 -76.6978 208° Southwest 318 366 32,000  Level Cleveland Center
Thu 02:24:10 AM 41.5253 -76.7475 209° Southwest 316 364 32,000  Level Cleveland Center
Thu 02:25:10 AM 41.4469 -76.8028 208° Southwest 317 365 32,000  Level Cleveland Center
Thu 02:26:11 AM 41.3675 -76.8569 207° Southwest 318 366 32,000  Level Cleveland Center
Thu 02:27:11 AM 41.2869 -76.9128 208° Southwest 323 372 32,000  Level Cleveland Center
Thu 02:28:11 AM 41.2086 -76.9681 208° Southwest 320 368 32,000  Level Cleveland Center
Thu 02:29:11 AM 41.1306 -77.0219 207° Southwest 319 367 32,000  Level Cleveland Center
Thu 02:30:35 AM 41.0378 -77.0872 208° Southwest 317 365 32,000  Level Cleveland Center
Thu 02:31:35 AM 40.9442 -77.1531 208° Southwest 317 365 32,000  Level Cleveland Center
Thu 02:32:35 AM 40.8667 -77.2056 207° Southwest 316 364 32,000  Level Cleveland Center
Thu 02:33:35 AM 40.7897 -77.2597 208° Southwest 315 362 32,000  Level Cleveland Center
Thu 02:34:35 AM 40.7119 -77.3122 207° Southwest 315 362 32,000  Level Cleveland Center
Thu 02:35:35 AM 40.6336 -77.3667 208° Southwest 315 362 32,000  Level Cleveland Center
Thu 02:36:36 AM 40.5564 -77.4194 207° Southwest 315 362 32,000  Level Cleveland Center
Thu 02:37:36 AM 40.4778 -77.4736 208° Southwest 315 362 32,000  Level Cleveland Center
Thu 02:38:36 AM 40.4003 -77.5272 208° Southwest 315 362 32,000  Level Cleveland Center
Thu 02:39:36 AM 40.3236 -77.5794 207° Southwest 315 362 32,000  Level Cleveland Center
Thu 02:40:36 AM 40.2419 -77.6339 207° Southwest 315 362 32,000  Level Cleveland Center
Thu 02:41:36 AM 40.1650 -77.6878 208° Southwest 314 361 32,000  Level Cleveland Center
Thu 02:42:36 AM 40.0881 -77.7378 206° Southwest 313 360 32,000  Level Cleveland Center
Thu 02:43:36 AM 40.0111 -77.7906 208° Southwest 313 360 32,000  Level Cleveland Center
Thu 02:44:36 AM 39.9347 -77.8419 207° Southwest 313 360 32,000  Level Cleveland Center
Thu 02:45:36 AM 39.8575 -77.8925 207° Southwest 312 359 32,000  Level Cleveland Center
Thu 02:46:36 AM 39.7803 -77.9456 208° Southwest 312 359 32,000  Level Cleveland Center
Thu 02:47:37 AM 39.7028 -77.9967 207° Southwest 312 359 32,000  Level Cleveland Center
Thu 02:48:37 AM 39.6258 -78.0475 207° Southwest 312 359 32,000  Level Cleveland Center
Thu 02:49:37 AM 39.5483 -78.0986 207° Southwest 312 359 32,000  Level Cleveland Center
Thu 02:50:39 AM 39.4531 -78.1611 207° Southwest 314 361 32,000  Level Washington Center
Thu 02:51:39 AM 39.3747 -78.2119 207° Southwest 314 361 32,000  Level Washington Center
Thu 02:52:39 AM 39.2986 -78.2628 207° Southwest 314 361 32,000  Level Washington Center
Thu 02:53:39 AM 39.2203 -78.3136 207° Southwest 314 361 32,000  Level Washington Center
Thu 02:54:41 AM 39.1442 -78.3642 207° Southwest 314 361 32,000  Level Washington Center
Thu 02:55:41 AM 39.0678 -78.4147 207° Southwest 314 361 32,000  Level Washington Center
Thu 02:56:39 AM 38.9917 -78.4628 206° Southwest 314 361 32,000  Level Washington Center
Thu 02:57:42 AM 38.9156 -78.5131 207° Southwest 314 361 32,000  Level Washington Center
Thu 02:58:39 AM 38.8392 -78.5661 208° Southwest 314 361 32,000  Level Washington Center
Thu 02:59:40 AM 38.7650 -78.6161 208° Southwest 314 361 32,000  Level Washington Center
Thu 03:00:39 AM 38.6906 -78.6664 208° Southwest 314 361 32,000  Level Washington Center
Thu 03:01:40 AM 38.6183 -78.7192 210° Southwest 314 361 32,000  Level Washington Center
Thu 03:02:41 AM 38.5419 -78.7717 208° Southwest 314 361 32,000  Level Washington Center
Thu 03:03:41 AM 38.4656 -78.8214 207° Southwest 314 361 32,000  Level Washington Center
Thu 03:04:41 AM 38.3889 -78.8764 209° Southwest 314 361 32,000  Level Washington Center
Thu 03:05:39 AM 38.3144 -78.9314 210° Southwest 314 361 32,000  Level Washington Center
Thu 03:06:39 AM 38.2381 -78.9833 208° Southwest 314 361 32,000  Level Washington Center
Thu 03:07:39 AM 38.1678 -79.0306 208° Southwest 314 361 32,000  Level Washington Center
Thu 03:08:39 AM 38.0911 -79.0822 208° Southwest 314 361 32,000  Level Washington Center
Thu 03:09:39 AM 38.0147 -79.1342 208° Southwest 314 361 32,000  Level Washington Center
Thu 03:10:41 AM 37.9381 -79.1858 208° Southwest 314 361 32,000  Level Washington Center
Thu 03:11:39 AM 37.8550 -79.2425 208° Southwest 314 361 32,000  Level Washington Center
Thu 03:12:39 AM 37.7783 -79.2939 208° Southwest 314 361 32,000  Level Washington Center
Thu 03:13:39 AM 37.7061 -79.3375 206° Southwest 314 361 32,000  Level Washington Center
Thu 03:14:41 AM 37.6228 -79.3936 208° Southwest 314 361 32,000  Level Washington Center
Thu 03:15:39 AM 37.5547 -79.4400 208° Southwest 314 361 32,000  Level Washington Center
Thu 03:16:39 AM 37.4717 -79.4933 207° Southwest 314 361 32,000  Level Washington Center
Thu 03:17:39 AM 37.3925 -79.5469 208° Southwest 319 367 32,000  Level Washington Center
Thu 03:18:39 AM 37.3200 -79.5981 209° Southwest 314 361 32,000 -250 Level Washington Center
Thu 03:19:39 AM 37.2517 -79.6442 208° Southwest 314 361 31,500 -750 Descending Washington Center
Thu 03:20:39 AM 37.1750 -79.6919 206° Southwest 314 361 30,500 -1,000 Descending Washington Center
Thu 03:21:39 AM 37.1003 -79.7428 208° Southwest 314 361 29,500 -984 Descending Washington Center
Thu 03:22:41 AM 37.0233 -79.7933 208° Southwest 314 361 28,500 -1,000 Descending Washington Center
Thu 03:23:39 AM 36.9400 -79.8486 208° Southwest 326 375 27,500 -1,119 Descending Washington Center
Thu 03:24:39 AM 36.8503 -79.9058 207° Southwest 331 381 26,300 -1,082 Descending Washington Center
Thu 03:25:41 AM 36.7669 -79.9608 208° Southwest 331 381 25,300 -994 Descending Washington Center
Thu 03:27:34 AM 36.6211 -80.0503 206° Southwest 330 380 23,400 -1,075 Descending Atlanta Center
Thu 03:28:34 AM 36.5375 -80.1086 209° Southwest 325 374 22,200 -700 Descending Atlanta Center
Thu 03:29:34 AM 36.4661 -80.1536 207° Southwest 314 361 22,000 -100 Descending Atlanta Center
Thu 03:30:34 AM 36.3903 -80.2011 207° Southwest 304 350 22,000  Level Atlanta Center
Thu 03:31:34 AM 36.3189 -80.2483 208° Southwest 304 350 22,000 -700 Level Atlanta Center
Thu 03:32:34 AM 36.2431 -80.2956 207° Southwest 304 350 20,600 -1,700 Descending Atlanta Center
Thu 03:33:34 AM 36.1778 -80.3372 207° Southwest 304 350 18,600 -1,800 Descending Atlanta Center
Thu 03:34:34 AM 36.1061 -80.3817 207° Southwest 299 344 17,000 -1,750 Descending Atlanta Center
Thu 03:35:34 AM 36.0344 -80.4286 208° Southwest 299 344 15,100 -1,000 Descending Atlanta Center
Thu 03:36:34 AM 35.9628 -80.4753 208° Southwest 299 344 15,000 -74 Descending Atlanta Center
Thu 03:36:55 AM 35.9342 -80.4997 215° Southwest 280 322 15,000  Level Atlanta Center
Thu 03:37:34 AM 35.8931 -80.5219 204° Southwest 294 338 15,000  Level Atlanta Center
Thu 03:37:50 AM 35.8686 -80.5383 209° Southwest 286 329 15,000  Level Atlanta Center
Thu 03:38:34 AM 35.8214 -80.5686 207° Southwest 289 333 15,000  Level Atlanta Center
Thu 03:38:51 AM 35.7947 -80.5850 206° Southwest 291 335 15,000  Level Atlanta Center
Thu 03:39:34 AM 35.7478 -80.6153 208° Southwest 289 333 15,000  Level Atlanta Center
Thu 03:39:51 AM 35.7211 -80.6317 207° Southwest 295 339 15,000 -900 Level Atlanta Center
Thu 03:40:34 AM 35.6781 -80.6667 213° Southwest 294 338 14,100 -1,574 Descending Atlanta Center
Thu 03:40:52 AM 35.6558 -80.6906 221° Southwest 291 335 13,400 -2,200 Descending Atlanta Center
Thu 03:41:34 AM 35.6172 -80.7281 218° Southwest 299 344 11,900 -2,400 Descending Atlanta Center
Thu 03:41:52 AM 35.5889 -80.7572 220° Southwest 288 331 11,000 -2,300 Descending Atlanta Center
Thu 03:42:34 AM 35.5503 -80.7944 218° Southwest 292 336 9,600 -2,656 Descending Atlanta Center
Thu 03:42:53 AM 35.5319 -80.8181 226° Southwest 271 312 8,300 -3,100 Descending Atlanta Center
Thu 03:43:34 AM 35.4997 -80.8578 225° Southwest 279 321 6,500 -2,951 Descending Atlanta Center
Thu 03:43:54 AM 35.4836 -80.8761 223° Southwest 241 277 5,300 -2,500 Descending Atlanta Center
Thu 03:44:34 AM 35.4533 -80.9156 227° Southwest 258 297 4,000 -1,300 Descending Atlanta Center
Thu 03:44:54 AM 35.4392 -80.9339 227° Southwest 231 266 4,000 -100 Level Atlanta Center
Thu 03:45:34 AM 35.4106 -80.9631 220° Southwest 233 268 3,900 -98 Descending Atlanta Center
Thu 03:45:55 AM 35.3939 -80.9636 182° South 177 204 3,900 -300 Level Atlanta Center
Thu 03:46:34 AM 35.3667 -80.9572 169° South 177 204 3,600 -600 Descending Atlanta Center
Thu 03:46:55 AM 35.3497 -80.9525 167° South 158 182 3,300 -951 Descending Atlanta Center
Thu 03:47:56 AM 35.3039 -80.9467 174° South 166 191 2,300 -787 Descending Atlanta Center
Thu 03:48:57 AM 35.2619 -80.9433 176° South 138 159 1,700 -590 Descending Atlanta Center
Thu 03:50:00 AM 35.2137 -80.9491 176° South  Level Estimated
Thu 03:57:00 AM 35.2137 -80.9491 176° South  Level Estimated
Thu 03:58:00 AM 35.2137 -80.9491 176° South  Level Estimated

Login

Don't have an account? Register now (free) for customized features, flight alerts, and more!